createdAt,value
2022-09-11T00:00:17.588Z,12.36
2022-09-11T00:02:45.167Z,12.36
2022-09-11T00:05:12.768Z,12.37
2022-09-11T00:07:40.340Z,12.35
2022-09-11T00:10:08.183Z,12.31
2022-09-11T00:12:35.806Z,12.29
2022-09-11T00:15:03.370Z,12.26
2022-09-11T00:17:32.455Z,12.28
2022-09-11T00:20:00.945Z,12.28
2022-09-11T00:22:28.687Z,12.30
2022-09-11T00:24:56.275Z,12.32
2022-09-11T00:27:24.199Z,12.30
2022-09-11T00:29:51.910Z,12.30
2022-09-11T00:32:20.135Z,12.27
2022-09-11T00:34:49.136Z,12.26
2022-09-11T00:37:16.707Z,12.25
2022-09-11T00:39:44.359Z,12.24
2022-09-11T00:42:12.175Z,12.23
2022-09-11T00:45:01.363Z,12.23
2022-09-11T00:47:31.020Z,12.22
2022-09-11T00:50:02.759Z,12.20
2022-09-11T00:52:32.345Z,12.19
2022-09-11T00:55:02.683Z,12.22
2022-09-11T00:57:31.687Z,12.22
2022-09-11T01:00:00.567Z,12.21
2022-09-11T01:02:29.987Z,12.19
2022-09-11T01:04:58.815Z,12.20
2022-09-11T01:07:28.063Z,12.22
2022-09-11T01:09:56.310Z,12.23
2022-09-11T01:12:27.810Z,12.22
2022-09-11T01:14:59.566Z,12.21
2022-09-11T01:17:30.239Z,12.17
2022-09-11T01:20:15.591Z,12.14
2022-09-11T01:22:54.690Z,12.15
2022-09-11T01:25:27.563Z,12.13
2022-09-11T01:27:57.665Z,12.10
2022-09-11T01:30:28.415Z,12.08
2022-09-11T01:33:06.188Z,12.08
2022-09-11T01:35:38.772Z,12.07
2022-09-11T01:38:10.175Z,12.06
2022-09-11T01:40:40.662Z,12.04
2022-09-11T01:43:13.816Z,12.07
2022-09-11T01:45:42.459Z,12.05
2022-09-11T01:48:11.018Z,12.06
2022-09-11T01:50:41.358Z,12.05
2022-09-11T01:53:10.459Z,12.04
2022-09-11T01:55:41.434Z,12.04
2022-09-11T01:58:13.149Z,12.05
2022-09-11T02:00:41.354Z,12.03
2022-09-11T02:03:11.853Z,12.03
2022-09-11T02:05:43.799Z,12.05
2022-09-11T02:08:16.353Z,12.06
2022-09-11T02:10:47.086Z,12.03
2022-09-11T02:13:18.758Z,12.01
2022-09-11T02:15:49.761Z,12.03
2022-09-11T02:18:19.958Z,12.03
2022-09-11T02:20:47.684Z,11.99
2022-09-11T02:23:15.719Z,11.99
2022-09-11T02:25:43.334Z,11.98
2022-09-11T02:28:11.367Z,11.99
2022-09-11T02:30:41.373Z,12.01
2022-09-11T02:33:24.006Z,12.02
2022-09-11T02:35:54.823Z,12.02
2022-09-11T02:38:25.785Z,12.02
2022-09-11T02:40:55.785Z,11.98
2022-09-11T02:43:35.590Z,11.97
2022-09-11T02:46:14.067Z,11.98
2022-09-11T02:48:47.422Z,11.97
2022-09-11T02:51:19.051Z,11.99
2022-09-11T02:53:50.258Z,11.95
2022-09-11T02:56:22.368Z,11.93
2022-09-11T02:58:52.394Z,11.90
2022-09-11T03:01:21.370Z,11.89
2022-09-11T03:03:49.092Z,11.87
2022-09-11T03:06:17.754Z,11.85
2022-09-11T03:08:45.675Z,11.82
2022-09-11T03:11:15.380Z,11.81
2022-09-11T03:13:43.128Z,11.82
2022-09-11T03:16:12.073Z,11.85
2022-09-11T03:18:41.064Z,11.85
2022-09-11T03:21:10.818Z,11.82
2022-09-11T03:23:39.069Z,11.82
2022-09-11T03:26:07.284Z,11.79
2022-09-11T03:28:35.357Z,11.77
2022-09-11T03:31:03.095Z,11.72
2022-09-11T03:33:30.695Z,11.72
2022-09-11T03:35:59.750Z,11.74
2022-09-11T03:38:27.415Z,11.75
2022-09-11T03:40:55.322Z,11.69
2022-09-11T03:43:23.046Z,11.68
2022-09-11T03:45:51.124Z,11.68
2022-09-11T03:48:19.140Z,11.68
2022-09-11T03:50:47.757Z,11.67
2022-09-11T03:53:16.834Z,11.67
2022-09-11T03:55:46.364Z,11.65
2022-09-11T03:58:14.179Z,11.65
2022-09-11T04:00:42.877Z,11.65
2022-09-11T04:03:10.719Z,11.66
2022-09-11T04:05:38.702Z,11.65
2022-09-11T04:08:06.588Z,11.64
2022-09-11T04:10:35.629Z,11.60
2022-09-11T04:13:03.227Z,11.61
2022-09-11T04:15:31.091Z,11.63
2022-09-11T04:18:03.344Z,11.63
2022-09-11T04:20:32.971Z,11.63
2022-09-11T04:23:00.599Z,11.62
2022-09-11T04:25:28.195Z,11.64
2022-09-11T04:27:57.509Z,11.64
2022-09-11T04:30:25.171Z,11.64
2022-09-11T04:32:52.746Z,11.64
2022-09-11T04:35:20.338Z,11.64
2022-09-11T04:37:49.189Z,11.66
2022-09-11T04:40:16.891Z,11.67
2022-09-11T04:42:44.483Z,11.68
2022-09-11T04:45:13.694Z,11.70
2022-09-11T04:47:41.378Z,11.71
2022-09-11T04:50:09.398Z,11.71
2022-09-11T04:52:36.995Z,11.73
2022-09-11T04:55:04.754Z,11.74
2022-09-11T04:57:32.375Z,11.74
2022-09-11T05:00:00.142Z,11.73
2022-09-11T05:02:29.181Z,11.73
2022-09-11T05:04:58.760Z,11.76
2022-09-11T05:07:26.358Z,11.80
2022-09-11T05:09:54.476Z,11.84
2022-09-11T05:12:22.163Z,11.85
2022-09-11T05:14:49.775Z,11.85
2022-09-11T05:17:17.379Z,11.87
2022-09-11T05:19:46.377Z,11.90
2022-09-11T05:22:15.885Z,11.93
2022-09-11T05:24:43.475Z,11.99
2022-09-11T05:27:12.019Z,12.01
2022-09-11T05:29:39.784Z,12.02
2022-09-11T05:32:07.372Z,12.04
2022-09-11T05:34:35.031Z,12.05
2022-09-11T05:37:04.061Z,12.07
2022-09-11T05:39:31.734Z,12.08
2022-09-11T05:41:59.346Z,12.11
2022-09-11T05:44:26.924Z,12.16
2022-09-11T05:46:55.165Z,12.19
2022-09-11T05:49:22.991Z,12.22
2022-09-11T05:51:50.602Z,12.24
2022-09-11T05:54:19.571Z,12.27
2022-09-11T05:56:47.158Z,12.31
2022-09-11T05:59:15.558Z,12.33
2022-09-11T06:01:44.055Z,12.35
2022-09-11T06:04:12.394Z,12.37
2022-09-11T06:06:39.999Z,12.37
2022-09-11T06:09:07.951Z,12.39
2022-09-11T06:11:37.081Z,12.43
2022-09-11T06:14:04.946Z,12.47
2022-09-11T06:16:32.623Z,12.52
2022-09-11T06:19:00.498Z,12.55
2022-09-11T06:21:29.287Z,12.56
2022-09-11T06:23:56.907Z,12.59
2022-09-11T06:26:25.434Z,12.63
2022-09-11T06:28:55.162Z,12.68
2022-09-11T06:31:24.327Z,12.73
2022-09-11T06:33:52.108Z,12.76
2022-09-11T06:36:20.729Z,12.78
2022-09-11T06:38:53.293Z,12.85
2022-09-11T06:41:20.956Z,12.90
2022-09-11T06:43:49.381Z,12.92
2022-09-11T06:46:20.059Z,12.94
2022-09-11T06:48:48.689Z,12.98
2022-09-11T06:51:17.487Z,12.99
2022-09-11T06:53:45.593Z,13.02
2022-09-11T06:56:13.910Z,13.04
2022-09-11T06:58:41.733Z,13.06
2022-09-11T07:01:11.142Z,13.10
2022-09-11T07:03:44.027Z,13.14
2022-09-11T07:06:12.065Z,13.17
2022-09-11T07:08:40.185Z,13.22
2022-09-11T07:11:08.175Z,13.25
2022-09-11T07:13:41.194Z,13.28
2022-09-11T07:16:09.710Z,13.32
2022-09-11T07:18:38.154Z,13.36
2022-09-11T07:21:07.989Z,13.41
2022-09-11T07:23:35.995Z,13.44
2022-09-11T07:26:04.171Z,13.46
2022-09-11T07:28:32.135Z,13.50
2022-09-11T07:31:06.576Z,13.53
2022-09-11T07:33:34.198Z,13.55
2022-09-11T07:36:01.849Z,13.58
2022-09-11T07:38:31.809Z,13.63
2022-09-11T07:40:59.504Z,13.70
2022-09-11T07:43:27.288Z,13.75
2022-09-11T07:45:55.780Z,13.81
2022-09-11T07:48:23.600Z,13.85
2022-09-11T07:50:58.289Z,13.91
2022-09-11T07:53:26.295Z,13.97
2022-09-11T07:55:56.113Z,14.01
2022-09-11T07:58:24.187Z,14.04
2022-09-11T08:00:58.496Z,14.07
2022-09-11T08:03:26.514Z,14.11
2022-09-11T08:05:57.802Z,14.14
2022-09-11T08:08:25.678Z,14.19
2022-09-11T08:10:53.519Z,14.21
2022-09-11T08:13:22.876Z,14.23
2022-09-11T08:15:50.915Z,14.26
2022-09-11T08:18:18.517Z,14.29
2022-09-11T08:20:46.378Z,14.35
2022-09-11T08:23:15.344Z,14.44
2022-09-11T08:25:43.270Z,14.49
2022-09-11T08:28:11.361Z,14.55
2022-09-11T08:30:40.455Z,14.58
2022-09-11T08:33:09.479Z,14.58
2022-09-11T08:35:37.708Z,14.62
2022-09-11T08:38:05.396Z,14.68
2022-09-11T08:40:37.742Z,14.71
2022-09-11T08:43:06.050Z,14.75
2022-09-11T08:45:35.929Z,14.81
2022-09-11T08:48:07.072Z,14.88
2022-09-11T08:50:37.150Z,14.91
2022-09-11T08:53:07.703Z,14.94
2022-09-11T08:55:39.631Z,15.00
2022-09-11T08:58:12.261Z,15.02
2022-09-11T09:00:43.171Z,15.02
2022-09-11T09:03:26.246Z,15.07
2022-09-11T09:05:56.399Z,15.10
2022-09-11T09:08:35.290Z,15.12
2022-09-11T09:11:06.242Z,15.17
2022-09-11T09:13:45.049Z,15.24
2022-09-11T09:16:20.565Z,15.28
2022-09-11T09:18:51.501Z,15.31
2022-09-11T09:21:22.831Z,15.38
2022-09-11T09:23:52.582Z,15.38
2022-09-11T09:26:20.895Z,15.38
2022-09-11T09:28:50.681Z,15.38
2022-09-11T09:31:24.602Z,15.42
2022-09-11T09:33:57.158Z,15.47
2022-09-11T09:36:29.336Z,15.51
2022-09-11T09:38:57.119Z,15.51
2022-09-11T09:41:43.951Z,15.54
2022-09-11T09:44:19.641Z,15.57
2022-09-11T09:46:51.181Z,15.60
2022-09-11T09:49:23.341Z,15.60
2022-09-11T09:51:51.793Z,15.60
2022-09-11T09:54:23.323Z,15.62
2022-09-11T09:56:54.809Z,15.64
2022-09-11T09:59:24.103Z,15.64
2022-09-11T10:01:52.471Z,15.65
2022-09-11T10:04:23.864Z,15.68
2022-09-11T10:06:53.093Z,15.70
2022-09-11T10:09:25.263Z,15.70
2022-09-11T10:11:58.704Z,15.73
2022-09-11T10:14:49.941Z,15.70
2022-09-11T10:17:21.166Z,15.70
2022-09-11T10:19:50.946Z,15.68
2022-09-11T10:22:23.590Z,15.70
2022-09-11T10:25:00.454Z,15.73
2022-09-11T10:27:29.072Z,15.76
2022-09-11T10:29:57.595Z,15.78
2022-09-11T10:32:25.709Z,15.77
2022-09-11T10:34:54.797Z,15.79
2022-09-11T10:37:25.309Z,15.80
2022-09-11T10:39:54.075Z,15.78
2022-09-11T10:42:23.362Z,15.76
2022-09-11T10:44:51.876Z,15.77
2022-09-11T10:47:23.423Z,15.80
2022-09-11T10:49:51.019Z,15.78
2022-09-11T10:52:22.274Z,15.77
2022-09-11T10:54:58.533Z,15.77
2022-09-11T10:57:28.866Z,15.76
2022-09-11T11:00:03.875Z,15.77
2022-09-11T11:02:33.143Z,15.74
2022-09-11T11:05:03.660Z,15.74
2022-09-11T11:07:45.149Z,15.67
2022-09-11T11:10:18.323Z,15.72
2022-09-11T11:12:50.906Z,15.73
2022-09-11T11:15:31.160Z,15.74
2022-09-11T11:18:16.655Z,15.75
2022-09-11T11:20:48.682Z,15.77
2022-09-11T11:23:36.691Z,15.77
2022-09-11T11:26:14.668Z,15.76
2022-09-11T11:28:55.920Z,15.73
2022-09-11T11:31:30.144Z,15.69
2022-09-11T11:34:05.184Z,15.67
2022-09-11T11:36:37.338Z,15.64
2022-09-11T11:39:14.400Z,15.63
2022-09-11T11:41:44.928Z,15.63
2022-09-11T11:44:16.862Z,15.62
2022-09-11T11:46:46.858Z,15.64
2022-09-11T11:49:19.457Z,15.66
2022-09-11T11:51:51.103Z,15.68
2022-09-11T11:54:22.759Z,15.76
2022-09-11T11:56:51.830Z,15.76
2022-09-11T11:59:24.113Z,15.85
2022-09-11T12:01:55.995Z,15.89
2022-09-11T12:04:33.623Z,15.94
2022-09-11T12:07:02.615Z,16.03
2022-09-11T12:09:33.735Z,16.04
2022-09-11T12:12:05.800Z,16.05
2022-09-11T12:14:34.870Z,16.03
2022-09-11T12:17:18.351Z,16.07
2022-09-11T12:20:02.311Z,16.15
2022-09-11T12:22:39.074Z,16.21
2022-09-11T12:25:29.954Z,16.21
2022-09-11T12:28:10.774Z,16.24
2022-09-11T12:30:53.714Z,16.29
2022-09-11T12:33:36.262Z,16.36
2022-09-11T12:36:06.716Z,16.34
2022-09-11T12:38:38.121Z,16.31
2022-09-11T12:41:13.097Z,16.36
2022-09-11T12:43:48.310Z,16.38
2022-09-11T12:46:30.769Z,16.42
2022-09-11T12:49:20.994Z,16.41
2022-09-11T12:51:52.086Z,16.41
2022-09-11T12:54:23.461Z,16.47
2022-09-11T12:56:54.198Z,16.56
2022-09-11T12:59:24.294Z,16.60
2022-09-11T13:01:52.216Z,16.63
2022-09-11T13:04:22.314Z,16.66
2022-09-11T13:06:52.531Z,16.63
2022-09-11T13:09:21.963Z,16.62
2022-09-11T13:11:50.725Z,16.62
2022-09-11T13:14:42.364Z,16.69
2022-09-11T13:17:15.612Z,16.70
2022-09-11T13:19:43.310Z,16.71
2022-09-11T13:22:24.695Z,16.72
2022-09-11T13:24:52.726Z,16.84
2022-09-11T13:27:26.597Z,16.82
2022-09-11T13:29:55.876Z,16.80
2022-09-11T13:32:24.914Z,16.79
2022-09-11T13:34:56.491Z,16.76
2022-09-11T13:37:32.292Z,16.78
2022-09-11T13:40:00.649Z,16.79
2022-09-11T13:42:28.929Z,16.79
2022-09-11T13:44:58.031Z,16.76
2022-09-11T13:47:27.897Z,16.80
2022-09-11T13:49:58.337Z,16.87
2022-09-11T13:52:27.331Z,16.90
2022-09-11T13:54:56.204Z,16.98
2022-09-11T13:57:25.104Z,17.06
2022-09-11T13:59:54.243Z,17.15
2022-09-11T14:02:24.906Z,17.16
2022-09-11T14:04:55.268Z,17.18
2022-09-11T14:07:24.087Z,17.20
2022-09-11T14:09:52.954Z,17.21
2022-09-11T14:12:21.078Z,17.23
2022-09-11T14:14:53.990Z,17.26
2022-09-11T14:17:22.123Z,17.35
2022-09-11T14:19:51.555Z,17.39
2022-09-11T14:22:25.878Z,17.45
2022-09-11T14:24:57.700Z,17.50
2022-09-11T14:27:35.559Z,17.54
2022-09-11T14:30:03.206Z,17.63
2022-09-11T14:32:32.326Z,17.65
2022-09-11T14:35:00.244Z,17.69
2022-09-11T14:37:31.241Z,17.73
2022-09-11T14:40:00.235Z,17.74
2022-09-11T14:42:29.052Z,17.81
2022-09-11T14:44:56.801Z,17.84
2022-09-11T14:47:25.397Z,17.85
2022-09-11T14:49:54.457Z,17.86
2022-09-11T14:52:23.294Z,17.89
2022-09-11T14:54:52.410Z,17.93
2022-09-11T14:57:21.246Z,17.93
2022-09-11T14:59:48.850Z,17.94
2022-09-11T15:02:17.386Z,17.98
2022-09-11T15:04:46.822Z,18.04
2022-09-11T15:07:15.316Z,18.14
2022-09-11T15:09:43.370Z,18.21
2022-09-11T15:12:13.258Z,18.25
2022-09-11T15:14:58.531Z,18.22
2022-09-11T15:17:30.673Z,18.25
2022-09-11T15:19:59.479Z,18.24
2022-09-11T15:22:27.420Z,18.22
2022-09-11T15:24:56.586Z,18.24
2022-09-11T15:27:26.081Z,18.26
2022-09-11T15:29:54.371Z,18.21
2022-09-11T15:32:22.342Z,18.16
2022-09-11T15:34:51.673Z,18.13
2022-09-11T15:37:19.294Z,18.08
2022-09-11T15:39:47.024Z,18.05
2022-09-11T15:42:15.827Z,17.99
2022-09-11T15:44:46.083Z,17.94
2022-09-11T15:47:13.849Z,17.87
2022-09-11T15:49:42.281Z,17.79
2022-09-11T15:52:09.911Z,17.76
2022-09-11T15:54:37.760Z,17.69
2022-09-11T15:57:05.410Z,17.62
2022-09-11T15:59:33.643Z,17.52
2022-09-11T16:02:02.945Z,17.40
2022-09-11T16:04:31.680Z,17.27
2022-09-11T16:06:59.755Z,17.17
2022-09-11T16:09:28.230Z,17.15
2022-09-11T16:11:56.961Z,17.08
2022-09-11T16:14:25.453Z,16.99
2022-09-11T16:16:53.448Z,16.94
2022-09-11T16:19:23.410Z,16.88
2022-09-11T16:21:51.367Z,16.83
2022-09-11T16:24:18.954Z,16.78
2022-09-11T16:26:46.994Z,16.74
2022-09-11T16:29:15.690Z,16.71
2022-09-11T16:31:43.631Z,16.66
2022-09-11T16:34:12.130Z,16.61
2022-09-11T16:36:42.561Z,16.58
2022-09-11T16:39:11.752Z,16.51
2022-09-11T16:41:39.954Z,16.45
2022-09-11T16:44:08.613Z,16.41
2022-09-11T16:46:37.222Z,16.38
2022-09-11T16:49:05.957Z,16.36
2022-09-11T16:51:34.178Z,16.31
2022-09-11T16:54:03.571Z,16.27
2022-09-11T16:56:31.182Z,16.22
2022-09-11T16:58:58.879Z,16.20
2022-09-11T17:01:27.769Z,16.17
2022-09-11T17:03:56.475Z,16.12
2022-09-11T17:06:24.968Z,16.07
2022-09-11T17:08:52.795Z,16.02
2022-09-11T17:11:22.549Z,15.91
2022-09-11T17:13:50.462Z,15.84
2022-09-11T17:16:19.024Z,15.74
2022-09-11T17:18:47.994Z,15.65
2022-09-11T17:21:16.334Z,15.56
2022-09-11T17:23:44.612Z,15.50
2022-09-11T17:26:13.378Z,15.45
2022-09-11T17:28:42.909Z,15.39
2022-09-11T17:31:11.451Z,15.36
2022-09-11T17:33:40.228Z,15.31
2022-09-11T17:36:08.770Z,15.28
2022-09-11T17:38:36.841Z,15.18
2022-09-11T17:41:05.405Z,15.14
2022-09-11T17:43:34.339Z,15.12
2022-09-11T17:46:03.765Z,15.08
2022-09-11T17:48:31.382Z,15.01
2022-09-11T17:51:02.774Z,14.96
2022-09-11T17:53:36.400Z,14.92
2022-09-11T17:56:06.783Z,14.88
2022-09-11T17:58:34.442Z,14.84
2022-09-11T18:01:03.533Z,14.81
2022-09-11T18:03:31.853Z,14.78
2022-09-11T18:05:59.806Z,14.73
2022-09-11T18:08:27.883Z,14.71
2022-09-11T18:10:59.813Z,14.73
2022-09-11T18:13:28.063Z,14.71
2022-09-11T18:15:56.202Z,14.68
2022-09-11T18:18:25.751Z,14.67
2022-09-11T18:20:55.177Z,14.64
2022-09-11T18:23:23.730Z,14.63
2022-09-11T18:25:51.550Z,14.59
2022-09-11T18:28:20.249Z,14.54
2022-09-11T18:30:49.842Z,14.50
2022-09-11T18:33:17.675Z,14.47
2022-09-11T18:35:47.208Z,14.44
2022-09-11T18:38:14.832Z,14.36
2022-09-11T18:40:42.437Z,14.33
2022-09-11T18:43:10.035Z,14.28
2022-09-11T18:45:37.675Z,14.19
2022-09-11T18:48:05.666Z,14.09
2022-09-11T18:50:33.364Z,14.01
2022-09-11T18:53:03.218Z,13.88
2022-09-11T18:55:30.829Z,13.79
2022-09-11T18:58:00.171Z,13.71
2022-09-11T19:00:29.673Z,13.71
2022-09-11T19:02:57.370Z,13.69
2022-09-11T19:05:25.324Z,13.69
2022-09-11T19:07:52.921Z,13.70
2022-09-11T19:10:22.033Z,13.69
2022-09-11T19:12:49.687Z,13.63
2022-09-11T19:15:17.449Z,13.58
2022-09-11T19:17:47.872Z,13.54
2022-09-11T19:20:16.954Z,13.50
2022-09-11T19:22:44.547Z,13.47
2022-09-11T19:25:12.222Z,13.46
2022-09-11T19:27:42.016Z,13.45
2022-09-11T19:30:09.889Z,13.47
2022-09-11T19:32:37.663Z,13.48
2022-09-11T19:35:05.787Z,13.42
2022-09-11T19:37:34.047Z,13.39
2022-09-11T19:40:01.680Z,13.34
2022-09-11T19:42:29.338Z,13.32
2022-09-11T19:45:00.214Z,13.30
2022-09-11T19:47:29.242Z,13.27
2022-09-11T19:49:56.890Z,13.26
2022-09-11T19:52:25.809Z,13.20
2022-09-11T19:54:54.587Z,13.16
2022-09-11T19:57:22.175Z,13.13
2022-09-11T19:59:49.790Z,13.09
2022-09-11T20:02:19.257Z,13.07
2022-09-11T20:04:46.963Z,13.02
2022-09-11T20:07:14.548Z,12.98
2022-09-11T20:09:42.857Z,12.91
2022-09-11T20:12:10.654Z,12.87
2022-09-11T20:14:42.434Z,12.78
2022-09-11T20:17:10.563Z,12.71
2022-09-11T20:19:40.745Z,12.64
2022-09-11T20:22:09.073Z,12.60
2022-09-11T20:24:39.527Z,12.56
2022-09-11T20:27:07.114Z,12.52
2022-09-11T20:29:34.698Z,12.53
2022-09-11T20:32:02.425Z,12.48
2022-09-11T20:34:30.131Z,12.47
2022-09-11T20:37:00.847Z,12.45
2022-09-11T20:39:28.701Z,12.44
2022-09-11T20:41:56.287Z,12.42
2022-09-11T20:44:24.512Z,12.39
2022-09-11T20:46:52.143Z,12.37
2022-09-11T20:49:19.775Z,12.38
2022-09-11T20:51:47.391Z,12.37
2022-09-11T20:54:16.403Z,12.30
2022-09-11T20:56:44.452Z,12.32
2022-09-11T20:59:12.166Z,12.26
2022-09-11T21:01:39.828Z,12.19
2022-09-11T21:04:07.584Z,12.14
2022-09-11T21:06:35.886Z,12.09
2022-09-11T21:09:05.810Z,12.06
2022-09-11T21:11:35.234Z,12.03
2022-09-11T21:14:02.876Z,11.97
2022-09-11T21:16:30.562Z,11.93
2022-09-11T21:18:59.184Z,11.87
2022-09-11T21:21:27.284Z,11.82
2022-09-11T21:23:55.338Z,11.70
2022-09-11T21:26:22.953Z,11.64
2022-09-11T21:28:51.902Z,11.61
2022-09-11T21:31:19.722Z,11.55
2022-09-11T21:33:47.397Z,11.52
2022-09-11T21:36:15.078Z,11.52
2022-09-11T21:38:42.699Z,11.47
2022-09-11T21:41:11.246Z,11.44
2022-09-11T21:43:39.283Z,11.42
2022-09-11T21:46:09.369Z,11.46
2022-09-11T21:48:38.118Z,11.47
2022-09-11T21:51:06.260Z,11.48
2022-09-11T21:53:33.870Z,11.49
2022-09-11T21:56:01.496Z,11.47
2022-09-11T21:58:29.091Z,11.43
2022-09-11T22:00:56.720Z,11.38
2022-09-11T22:03:25.946Z,11.34
2022-09-11T22:05:53.560Z,11.31
2022-09-11T22:08:21.433Z,11.28
2022-09-11T22:10:49.837Z,11.23
2022-09-11T22:13:18.192Z,11.20
2022-09-11T22:15:46.902Z,11.20
2022-09-11T22:18:15.010Z,11.17
2022-09-11T22:20:44.427Z,11.14
2022-09-11T22:23:14.751Z,11.11
2022-09-11T22:25:42.404Z,11.09
2022-09-11T22:28:10.181Z,11.09
2022-09-11T22:30:41.501Z,11.06
2022-09-11T22:33:09.117Z,11.06
2022-09-11T22:35:36.772Z,11.07
2022-09-11T22:38:05.915Z,11.09
2022-09-11T22:40:33.538Z,11.05
2022-09-11T22:43:01.267Z,11.04
2022-09-11T22:45:29.156Z,11.06
2022-09-11T22:47:56.850Z,11.05
2022-09-11T22:50:24.542Z,11.02
2022-09-11T22:52:52.251Z,11.02
2022-09-11T22:55:21.254Z,11.02
2022-09-11T22:57:48.842Z,11.04
2022-09-11T23:00:19.053Z,11.05
2022-09-11T23:02:46.648Z,11.07
2022-09-11T23:05:31.406Z,11.06
2022-09-11T23:07:59.014Z,11.06
2022-09-11T23:10:27.980Z,11.05
2022-09-11T23:12:55.774Z,11.03
2022-09-11T23:15:23.393Z,11.02
2022-09-11T23:17:51.020Z,11.02
2022-09-11T23:20:19.209Z,11.03
2022-09-11T23:22:46.787Z,11.04
2022-09-11T23:25:14.883Z,11.02
2022-09-11T23:27:44.327Z,10.99
2022-09-11T23:30:12.205Z,11.00
2022-09-11T23:32:41.901Z,10.99
2022-09-11T23:35:10.841Z,11.01
2022-09-11T23:37:41.083Z,11.02
2022-09-11T23:40:11.280Z,11.04
2022-09-11T23:42:38.946Z,11.06
2022-09-11T23:45:08.614Z,11.05
2022-09-11T23:47:36.194Z,11.08
2022-09-11T23:50:03.785Z,11.09
2022-09-11T23:52:31.382Z,11.11
2022-09-11T23:54:59.098Z,11.14
2022-09-11T23:57:26.682Z,11.17
2022-09-11T23:59:54.307Z,11.15
